createdAt,value
2018-02-09T00:01:01.346Z,87.40
2018-02-09T00:03:27.706Z,87.40
2018-02-09T00:05:54.153Z,87.40
2018-02-09T00:08:20.531Z,87.60
2018-02-09T00:10:46.894Z,87.80
2018-02-09T00:13:14.003Z,87.40
2018-02-09T00:15:40.346Z,87.30
2018-02-09T00:18:06.789Z,87.20
2018-02-09T00:20:33.911Z,87.20
2018-02-09T00:23:00.268Z,87.10
2018-02-09T00:25:26.630Z,87.50
2018-02-09T00:27:53.061Z,87.30
2018-02-09T00:30:19.433Z,87.00
2018-02-09T00:32:45.813Z,86.80
2018-02-09T00:35:12.184Z,86.70
2018-02-09T00:37:38.624Z,86.80
2018-02-09T00:40:05.015Z,87.00
2018-02-09T00:42:32.155Z,86.90
2018-02-09T00:44:59.267Z,86.70
2018-02-09T00:47:25.615Z,87.30
2018-02-09T00:49:51.973Z,86.60
2018-02-09T00:52:19.070Z,86.90
2018-02-09T00:54:45.427Z,86.90
2018-02-09T00:57:11.795Z,86.60
2018-02-09T00:59:38.197Z,86.20
2018-02-09T01:02:05.312Z,86.70
2018-02-09T01:04:31.662Z,86.40
2018-02-09T01:06:58.034Z,86.40
2018-02-09T01:09:24.542Z,86.50
2018-02-09T01:11:51.645Z,86.70
2018-02-09T01:14:17.998Z,86.70
2018-02-09T01:16:44.427Z,86.70
2018-02-09T01:19:10.782Z,86.70
2018-02-09T01:21:37.133Z,86.80
2018-02-09T01:24:03.556Z,86.70
2018-02-09T01:26:30.667Z,86.50
2018-02-09T01:28:57.078Z,86.50
2018-02-09T01:31:23.450Z,86.30
2018-02-09T01:33:49.813Z,86.70
2018-02-09T01:36:16.173Z,86.60
2018-02-09T01:38:42.526Z,86.20
2018-02-09T01:41:08.879Z,86.30
2018-02-09T01:43:35.246Z,86.60
2018-02-09T01:46:02.347Z,86.30
2018-02-09T01:48:28.719Z,86.30
2018-02-09T01:50:55.915Z,86.10
2018-02-09T01:53:22.278Z,86.10
2018-02-09T01:55:49.443Z,85.60
2018-02-09T01:58:16.553Z,86.60
2018-02-09T02:00:42.928Z,86.60
2018-02-09T02:03:10.039Z,86.30
2018-02-09T02:05:36.397Z,86.30
2018-02-09T02:08:03.517Z,86.70
2018-02-09T02:10:29.880Z,86.60
2018-02-09T02:12:56.985Z,86.30
2018-02-09T02:15:23.398Z,86.30
2018-02-09T02:17:49.842Z,86.50
2018-02-09T02:20:16.211Z,86.50
2018-02-09T02:22:43.308Z,85.60
2018-02-09T02:25:09.663Z,85.90
2018-02-09T02:27:36.030Z,85.90
2018-02-09T02:30:03.194Z,86.40
2018-02-09T02:32:30.346Z,86.20
2018-02-09T02:34:57.466Z,86.40
2018-02-09T02:37:23.829Z,86.30
2018-02-09T02:39:50.198Z,86.10
2018-02-09T02:42:16.562Z,85.60
2018-02-09T02:44:42.918Z,86.20
2018-02-09T02:47:09.306Z,86.80
2018-02-09T02:49:35.714Z,86.50
2018-02-09T02:52:02.142Z,86.50
2018-02-09T02:54:28.559Z,86.00
2018-02-09T02:56:54.914Z,86.40
2018-02-09T02:59:21.266Z,86.40
2018-02-09T03:01:47.617Z,86.50
2018-02-09T03:04:14.021Z,86.10
2018-02-09T03:06:40.354Z,86.20
2018-02-09T03:09:06.735Z,86.20
2018-02-09T03:11:33.814Z,86.20
2018-02-09T03:14:00.185Z,86.10
2018-02-09T03:16:26.588Z,86.40
2018-02-09T03:18:53.071Z,85.90
2018-02-09T03:21:20.198Z,85.70
2018-02-09T03:23:46.560Z,85.60
2018-02-09T03:26:12.937Z,86.20
2018-02-09T03:28:39.296Z,86.40
2018-02-09T03:31:06.410Z,86.60
2018-02-09T03:33:32.767Z,86.60
2018-02-09T03:35:59.129Z,86.40
2018-02-09T03:38:26.460Z,86.80
2018-02-09T03:40:53.579Z,87.00
2018-02-09T03:43:19.947Z,87.00
2018-02-09T03:45:47.060Z,86.80
2018-02-09T03:48:13.418Z,86.80
2018-02-09T03:50:39.798Z,86.60
2018-02-09T03:53:06.199Z,87.60
2018-02-09T03:55:33.372Z,87.50
2018-02-09T03:57:59.730Z,87.50
2018-02-09T04:00:26.835Z,88.80
2018-02-09T04:02:53.216Z,88.80
2018-02-09T04:05:19.578Z,88.50
2018-02-09T04:07:46.677Z,87.80
2018-02-09T04:10:13.045Z,87.90
2018-02-09T04:12:39.422Z,87.80
2018-02-09T04:15:05.787Z,87.60
2018-02-09T04:17:32.143Z,87.40
2018-02-09T04:19:59.417Z,87.40
2018-02-09T04:22:26.576Z,87.70
2018-02-09T04:24:52.953Z,87.70
2018-02-09T04:27:19.315Z,87.50
2018-02-09T04:29:46.418Z,87.40
2018-02-09T04:32:12.788Z,87.40
2018-02-09T04:34:39.169Z,87.10
2018-02-09T04:37:05.533Z,87.20
2018-02-09T04:39:31.964Z,86.80
2018-02-09T04:41:58.351Z,86.50
2018-02-09T04:44:24.754Z,86.40
2018-02-09T04:46:51.113Z,86.30
2018-02-09T04:49:17.487Z,86.20
2018-02-09T04:51:43.842Z,86.30
2018-02-09T04:54:10.214Z,86.30
2018-02-09T04:56:36.594Z,85.80
2018-02-09T04:59:03.071Z,86.80
2018-02-09T05:01:29.503Z,86.80
2018-02-09T05:03:55.868Z,86.90
2018-02-09T05:06:22.228Z,87.10
2018-02-09T05:08:48.598Z,86.50
2018-02-09T05:11:14.966Z,86.40
2018-02-09T05:13:41.334Z,86.90
2018-02-09T05:16:07.725Z,87.20
2018-02-09T05:18:34.082Z,87.10
2018-02-09T05:21:00.442Z,87.40
2018-02-09T05:23:27.687Z,87.50
2018-02-09T05:25:54.790Z,87.00
2018-02-09T05:28:21.161Z,86.90
2018-02-09T05:30:48.270Z,87.40
2018-02-09T05:33:14.634Z,87.00
2018-02-09T05:35:41.010Z,86.90
2018-02-09T05:38:07.370Z,87.50
2018-02-09T05:40:33.786Z,87.20
2018-02-09T05:43:00.948Z,87.10
2018-02-09T05:45:27.304Z,87.10
2018-02-09T05:47:53.662Z,87.10
2018-02-09T05:50:20.758Z,87.30
2018-02-09T05:52:47.097Z,87.20
2018-02-09T05:55:13.463Z,87.00
2018-02-09T05:57:39.826Z,86.70
2018-02-09T06:00:06.288Z,86.90
2018-02-09T06:02:32.659Z,87.40
2018-02-09T06:04:59.045Z,87.50
2018-02-09T06:07:25.450Z,87.40
2018-02-09T06:09:51.811Z,87.30
2018-02-09T06:12:18.166Z,87.40
2018-02-09T06:14:44.532Z,87.40
2018-02-09T06:17:11.623Z,87.40
2018-02-09T06:19:38.002Z,87.40
2018-02-09T06:22:04.371Z,87.30
2018-02-09T06:24:30.803Z,86.60
2018-02-09T06:26:57.231Z,86.40
2018-02-09T06:29:23.589Z,86.60
2018-02-09T06:31:49.978Z,86.70
2018-02-09T06:34:16.343Z,86.70
2018-02-09T06:36:42.710Z,86.40
2018-02-09T06:39:09.831Z,87.30
2018-02-09T06:41:36.247Z,87.20
2018-02-09T06:44:02.693Z,86.70
2018-02-09T06:46:29.090Z,87.50
2018-02-09T06:48:55.492Z,87.70
2018-02-09T06:51:22.669Z,86.80
2018-02-09T06:53:49.046Z,86.80
2018-02-09T06:56:15.398Z,86.90
2018-02-09T06:58:42.489Z,86.90
2018-02-09T07:01:08.852Z,86.90
2018-02-09T07:03:35.327Z,86.70
2018-02-09T07:06:02.442Z,86.80
2018-02-09T07:08:28.793Z,86.70
2018-02-09T07:10:55.890Z,87.60
2018-02-09T07:13:22.273Z,87.00
2018-02-09T07:15:50.114Z,87.00
2018-02-09T07:18:16.490Z,86.90
2018-02-09T07:20:43.595Z,86.10
2018-02-09T07:23:09.946Z,86.10
2018-02-09T07:25:36.396Z,86.20
2018-02-09T07:28:02.767Z,86.90
2018-02-09T07:30:29.115Z,86.50
2018-02-09T07:32:55.471Z,86.40
2018-02-09T07:35:21.850Z,86.20
2018-02-09T07:37:48.204Z,86.50
2018-02-09T07:40:15.307Z,86.20
2018-02-09T07:42:42.453Z,86.40
2018-02-09T07:45:09.619Z,85.70
2018-02-09T07:47:36.907Z,85.40
2018-02-09T07:50:03.350Z,85.40
2018-02-09T07:52:29.740Z,85.50
2018-02-09T07:54:56.153Z,86.00
2018-02-09T07:57:23.289Z,85.10
2018-02-09T07:59:49.645Z,85.10
2018-02-09T08:02:16.064Z,84.90
2018-02-09T08:04:42.473Z,85.50
2018-02-09T08:07:08.841Z,85.70
2018-02-09T08:09:35.938Z,84.50
2018-02-09T08:12:02.309Z,84.50
2018-02-09T08:14:29.434Z,85.40
2018-02-09T08:16:55.802Z,85.40
2018-02-09T08:19:23.121Z,86.00
2018-02-09T08:21:49.469Z,84.90
2018-02-09T08:24:16.564Z,85.00
2018-02-09T08:26:43.048Z,85.00
2018-02-09T08:29:10.172Z,84.20
2018-02-09T08:31:36.552Z,84.20
2018-02-09T08:34:02.918Z,84.30
2018-02-09T08:36:29.293Z,84.90
2018-02-09T08:38:56.431Z,84.60
2018-02-09T08:41:22.780Z,84.00
2018-02-09T08:43:49.931Z,83.60
2018-02-09T08:46:17.030Z,82.90
2018-02-09T08:48:43.432Z,82.80
2018-02-09T08:51:10.862Z,82.20
2018-02-09T08:53:38.030Z,82.90
2018-02-09T08:56:04.413Z,82.90
2018-02-09T08:58:30.798Z,83.00
2018-02-09T09:00:57.162Z,83.40
2018-02-09T09:03:23.538Z,83.60
2018-02-09T09:05:50.707Z,83.70
2018-02-09T09:08:17.100Z,83.70
2018-02-09T09:10:43.471Z,83.70
2018-02-09T09:13:09.845Z,83.60
2018-02-09T09:15:36.247Z,83.60
2018-02-09T09:18:02.618Z,83.20
2018-02-09T09:20:28.978Z,83.30
2018-02-09T09:22:56.078Z,82.90
2018-02-09T09:25:22.449Z,82.90
2018-02-09T09:27:48.907Z,83.00
2018-02-09T09:30:16.005Z,82.40
2018-02-09T09:32:42.365Z,82.50
2018-02-09T09:35:08.744Z,82.60
2018-02-09T09:37:35.110Z,82.20
2018-02-09T09:40:01.491Z,81.70
2018-02-09T09:42:27.878Z,81.80
2018-02-09T09:44:54.247Z,81.40
2018-02-09T09:47:20.620Z,81.50
2018-02-09T09:49:47.009Z,82.10
2018-02-09T09:52:13.365Z,82.00
2018-02-09T09:54:39.722Z,81.00
2018-02-09T09:57:06.158Z,80.30
2018-02-09T09:59:32.636Z,80.80
2018-02-09T10:01:58.994Z,82.40
2018-02-09T10:04:25.348Z,81.80
2018-02-09T10:06:51.709Z,80.30
2018-02-09T10:09:18.817Z,81.00
2018-02-09T10:11:46.231Z,80.80
2018-02-09T10:14:12.669Z,81.10
2018-02-09T10:16:39.043Z,80.60
2018-02-09T10:19:05.408Z,80.20
2018-02-09T10:21:32.515Z,79.60
2018-02-09T10:23:58.897Z,79.50
2018-02-09T10:26:26.020Z,79.60
2018-02-09T10:28:52.416Z,79.60
2018-02-09T10:31:18.838Z,78.80
2018-02-09T10:33:45.192Z,78.90
2018-02-09T10:36:11.554Z,79.00
2018-02-09T10:38:38.649Z,78.90
2018-02-09T10:41:05.019Z,78.90
2018-02-09T10:43:31.380Z,78.70
2018-02-09T10:45:58.474Z,79.10
2018-02-09T10:48:24.826Z,79.00
2018-02-09T10:50:51.204Z,79.10
2018-02-09T10:53:18.410Z,78.40
2018-02-09T10:55:44.862Z,78.40
2018-02-09T10:58:11.260Z,78.30
2018-02-09T11:00:43.874Z,77.90
2018-02-09T11:03:11.013Z,77.90
2018-02-09T11:05:37.385Z,77.90
2018-02-09T11:08:03.750Z,77.80
2018-02-09T11:10:32.882Z,78.10
2018-02-09T11:12:59.359Z,78.40
2018-02-09T11:15:25.798Z,78.20
2018-02-09T11:17:52.160Z,78.20
2018-02-09T11:20:18.514Z,78.50
2018-02-09T11:22:45.614Z,77.80
2018-02-09T11:25:12.023Z,77.80
2018-02-09T11:27:38.422Z,77.40
2018-02-09T11:30:04.782Z,76.70
2018-02-09T11:32:31.142Z,78.00
2018-02-09T11:34:57.516Z,76.60
2018-02-09T11:37:23.886Z,76.70
2018-02-09T11:39:50.361Z,76.00
2018-02-09T11:42:17.549Z,77.40
2018-02-09T11:44:44.711Z,77.40
2018-02-09T11:47:11.116Z,77.40
2018-02-09T11:49:37.510Z,76.90
2018-02-09T11:52:03.910Z,76.60
2018-02-09T11:54:30.379Z,77.60
2018-02-09T11:56:56.807Z,77.70
2018-02-09T11:59:23.218Z,77.70
2018-02-09T12:01:49.624Z,77.20
2018-02-09T12:04:16.801Z,78.20
2018-02-09T12:06:43.259Z,78.20
2018-02-09T12:09:09.695Z,78.60
2018-02-09T12:11:36.092Z,78.00
2018-02-09T12:14:02.491Z,79.10
2018-02-09T12:16:29.650Z,80.20
2018-02-09T12:18:57.688Z,80.30
2018-02-09T12:21:24.107Z,80.30
2018-02-09T12:23:50.644Z,80.30
2018-02-09T12:26:17.074Z,82.70
2018-02-09T12:28:43.476Z,82.40
2018-02-09T12:31:09.875Z,82.90
2018-02-09T12:33:37.026Z,82.20
2018-02-09T12:36:04.865Z,82.60
2018-02-09T12:38:31.217Z,82.60
2018-02-09T12:40:57.598Z,84.00
2018-02-09T12:43:23.974Z,84.80
2018-02-09T12:45:50.334Z,83.60
2018-02-09T12:48:17.438Z,82.90
2018-02-09T12:50:43.823Z,82.90
2018-02-09T12:53:10.193Z,83.10
2018-02-09T12:55:36.601Z,83.80
2018-02-09T12:58:02.987Z,84.00
2018-02-09T13:00:29.352Z,83.70
2018-02-09T13:02:55.724Z,83.10
2018-02-09T13:05:22.114Z,82.10
2018-02-09T13:07:48.498Z,84.20
2018-02-09T13:10:14.850Z,83.70
2018-02-09T13:12:53.396Z,81.60
2018-02-09T13:15:19.765Z,81.70
2018-02-09T13:17:46.130Z,83.20
2018-02-09T13:20:12.859Z,83.70
2018-02-09T13:22:51.429Z,84.20
2018-02-09T13:25:17.849Z,85.10
2018-02-09T13:27:44.969Z,85.10
2018-02-09T13:30:11.328Z,85.10
2018-02-09T13:32:50.819Z,85.20
2018-02-09T13:35:17.204Z,85.20
2018-02-09T13:37:43.580Z,85.00
2018-02-09T13:40:09.963Z,84.50
2018-02-09T13:42:36.353Z,84.30
2018-02-09T13:45:02.998Z,83.40
2018-02-09T13:47:30.137Z,83.80
2018-02-09T13:49:56.525Z,83.80
2018-02-09T13:52:22.911Z,82.50
2018-02-09T13:54:49.276Z,83.10
2018-02-09T13:57:16.370Z,85.60
2018-02-09T13:59:42.754Z,85.60
2018-02-09T14:02:09.151Z,87.40
2018-02-09T14:04:35.533Z,86.60
2018-02-09T14:07:01.978Z,87.00
2018-02-09T14:09:28.426Z,87.30
2018-02-09T14:11:54.826Z,87.00
2018-02-09T14:14:21.246Z,86.60
2018-02-09T14:16:47.606Z,85.70
2018-02-09T14:19:13.975Z,85.40
2018-02-09T14:21:41.839Z,81.90
2018-02-09T14:24:08.207Z,81.80
2018-02-09T14:26:35.285Z,80.90
2018-02-09T14:29:01.747Z,80.90
2018-02-09T14:31:28.156Z,80.20
2018-02-09T14:33:54.533Z,80.60
2018-02-09T14:36:20.882Z,80.20
2018-02-09T14:38:47.979Z,81.10
2018-02-09T14:41:14.379Z,81.00
2018-02-09T14:43:40.740Z,80.50
2018-02-09T14:46:07.448Z,81.00
2018-02-09T14:48:33.876Z,81.40
2018-02-09T14:51:00.323Z,80.70
2018-02-09T14:53:26.686Z,82.20
2018-02-09T14:55:53.311Z,81.50
2018-02-09T14:58:19.673Z,80.80
2018-02-09T15:00:47.537Z,80.60
2018-02-09T15:03:13.902Z,80.50
2018-02-09T15:05:40.305Z,81.70
2018-02-09T15:08:06.686Z,81.20
2018-02-09T15:10:33.045Z,81.00
2018-02-09T15:12:59.394Z,81.90
2018-02-09T15:15:25.762Z,81.80
2018-02-09T15:17:52.934Z,82.60
2018-02-09T15:20:19.286Z,82.60
2018-02-09T15:22:45.651Z,82.80
2018-02-09T15:25:13.676Z,82.00
2018-02-09T15:27:40.078Z,81.40
2018-02-09T15:30:06.480Z,81.00
2018-02-09T15:32:33.590Z,81.30
2018-02-09T15:34:59.986Z,81.30
2018-02-09T15:37:26.415Z,80.50
2018-02-09T15:39:53.516Z,81.20
2018-02-09T15:42:19.916Z,81.20
2018-02-09T15:44:46.279Z,82.20
2018-02-09T15:47:12.632Z,82.20
2018-02-09T15:49:38.984Z,83.00
2018-02-09T15:52:05.406Z,82.90
2018-02-09T15:54:31.759Z,83.60
2018-02-09T15:56:58.144Z,84.30
2018-02-09T15:59:24.530Z,84.20
2018-02-09T16:01:50.862Z,83.80
2018-02-09T16:04:17.218Z,84.40
2018-02-09T16:06:43.586Z,83.20
2018-02-09T16:09:09.975Z,83.50
2018-02-09T16:11:36.436Z,83.10
2018-02-09T16:14:02.843Z,83.00
2018-02-09T16:16:29.215Z,82.40
2018-02-09T16:18:55.618Z,84.20
2018-02-09T16:21:21.970Z,85.30
2018-02-09T16:23:48.345Z,84.90
2018-02-09T16:26:15.012Z,84.00
2018-02-09T16:28:41.382Z,83.80
2018-02-09T16:31:08.491Z,82.10
2018-02-09T16:33:34.851Z,82.10
2018-02-09T16:36:01.260Z,82.20
2018-02-09T16:38:27.643Z,82.30
2018-02-09T16:40:54.759Z,83.40
2018-02-09T16:43:21.142Z,83.40
2018-02-09T16:45:47.547Z,83.30
2018-02-09T16:48:14.680Z,83.50
2018-02-09T16:50:41.058Z,83.50
2018-02-09T16:53:07.410Z,83.60
2018-02-09T16:55:33.810Z,84.40
2018-02-09T16:58:00.215Z,84.70
2018-02-09T17:00:28.082Z,85.90
2018-02-09T17:02:54.538Z,85.80
2018-02-09T17:05:20.909Z,85.00
2018-02-09T17:07:47.295Z,84.70
2018-02-09T17:10:14.453Z,84.40
2018-02-09T17:12:40.842Z,84.40
2018-02-09T17:15:07.217Z,84.60
2018-02-09T17:17:34.340Z,85.10
2018-02-09T17:20:01.450Z,84.00
2018-02-09T17:22:27.805Z,84.00
2018-02-09T17:24:54.163Z,83.20
2018-02-09T17:27:21.362Z,83.30
2018-02-09T17:29:48.510Z,84.50
2018-02-09T17:32:14.868Z,84.50
2018-02-09T17:34:41.234Z,84.50
2018-02-09T17:37:08.333Z,83.60
2018-02-09T17:39:34.706Z,83.60
2018-02-09T17:42:01.824Z,83.80
2018-02-09T17:44:28.235Z,83.80
2018-02-09T17:46:54.630Z,83.70
2018-02-09T17:49:21.749Z,84.90
2018-02-09T17:51:48.899Z,84.80
2018-02-09T17:54:15.344Z,84.80
2018-02-09T17:56:42.474Z,85.00
2018-02-09T17:59:09.312Z,84.90
2018-02-09T18:01:35.707Z,84.00
2018-02-09T18:04:02.098Z,84.80
2018-02-09T18:06:29.214Z,87.00
2018-02-09T18:08:55.589Z,86.90
2018-02-09T18:11:21.974Z,87.60
2018-02-09T18:13:48.336Z,86.70
2018-02-09T18:16:14.760Z,85.90
2018-02-09T18:18:41.160Z,86.60
2018-02-09T18:21:07.525Z,86.00
2018-02-09T18:23:33.896Z,85.30
2018-02-09T18:26:00.270Z,85.70
2018-02-09T18:28:26.638Z,85.70
2018-02-09T18:30:53.785Z,85.50
2018-02-09T18:33:20.890Z,84.90
2018-02-09T18:35:47.402Z,84.90
2018-02-09T18:38:13.761Z,84.30
2018-02-09T18:40:40.154Z,83.80
2018-02-09T18:43:06.593Z,85.40
2018-02-09T18:45:32.951Z,86.00
2018-02-09T18:48:00.180Z,86.30
2018-02-09T18:50:26.565Z,85.70
2018-02-09T18:52:53.698Z,85.70
2018-02-09T18:55:20.086Z,85.30
2018-02-09T18:57:46.511Z,85.70
2018-02-09T19:00:12.937Z,85.00
2018-02-09T19:02:39.357Z,85.10
2018-02-09T19:05:06.472Z,86.00
2018-02-09T19:07:32.864Z,86.00
2018-02-09T19:09:59.250Z,85.80
2018-02-09T19:12:26.392Z,87.30
2018-02-09T19:14:53.554Z,88.70
2018-02-09T19:17:19.913Z,88.70
2018-02-09T19:19:46.341Z,88.00
2018-02-09T19:22:12.730Z,88.20
2018-02-09T19:24:39.109Z,87.60
2018-02-09T19:27:05.476Z,88.20
2018-02-09T19:29:31.826Z,88.10
2018-02-09T19:31:58.182Z,87.60
2018-02-09T19:34:25.293Z,88.50
2018-02-09T19:36:51.660Z,88.40
2018-02-09T19:39:18.818Z,85.50
2018-02-09T19:41:45.938Z,84.60
2018-02-09T19:44:12.303Z,84.50
2018-02-09T19:46:39.423Z,84.00
2018-02-09T19:49:07.261Z,84.00
2018-02-09T19:51:33.617Z,84.00
2018-02-09T19:53:59.994Z,84.70
2018-02-09T19:56:26.364Z,85.10
2018-02-09T19:58:52.733Z,85.20
2018-02-09T20:01:19.833Z,85.50
2018-02-09T20:03:46.217Z,85.50
2018-02-09T20:06:12.594Z,85.50
2018-02-09T20:08:39.854Z,86.10
2018-02-09T20:11:06.210Z,85.60
2018-02-09T20:13:32.602Z,85.40
2018-02-09T20:15:58.993Z,85.10
2018-02-09T20:18:26.096Z,85.10
2018-02-09T20:20:52.457Z,85.00
2018-02-09T20:23:18.832Z,85.10
2018-02-09T20:25:45.186Z,85.10
2018-02-09T20:28:11.575Z,84.90
2018-02-09T20:30:38.756Z,85.30
2018-02-09T20:33:05.118Z,85.30
2018-02-09T20:35:31.487Z,85.80
2018-02-09T20:37:58.598Z,86.60
2018-02-09T20:40:24.994Z,86.50
2018-02-09T20:42:51.358Z,86.60
2018-02-09T20:45:18.692Z,87.20
2018-02-09T20:47:45.095Z,88.10
2018-02-09T20:50:11.448Z,88.90
2018-02-09T20:52:37.807Z,88.70
2018-02-09T20:55:04.218Z,88.10
2018-02-09T20:57:30.587Z,87.20
2018-02-09T20:59:56.961Z,87.30
2018-02-09T21:02:23.342Z,87.60
2018-02-09T21:04:50.457Z,87.20
2018-02-09T21:07:16.870Z,87.20
2018-02-09T21:09:43.233Z,87.00
2018-02-09T21:12:09.601Z,86.30
2018-02-09T21:14:36.689Z,86.00
2018-02-09T21:17:03.083Z,85.60
2018-02-09T21:19:30.204Z,85.60
2018-02-09T21:21:56.633Z,85.50
2018-02-09T21:24:23.017Z,85.60
2018-02-09T21:26:49.451Z,84.80
2018-02-09T21:29:15.809Z,86.30
2018-02-09T21:31:42.192Z,86.40
2018-02-09T21:34:09.315Z,86.00
2018-02-09T21:36:35.681Z,86.00
2018-02-09T21:39:02.866Z,86.20
2018-02-09T21:41:29.242Z,86.20
2018-02-09T21:43:55.602Z,85.60
2018-02-09T21:46:21.981Z,85.50
2018-02-09T21:48:48.473Z,85.20
2018-02-09T21:51:14.838Z,84.70
2018-02-09T21:53:41.243Z,84.80
2018-02-09T21:56:08.354Z,84.90
2018-02-09T21:58:35.469Z,85.00
2018-02-09T22:01:01.880Z,85.00
2018-02-09T22:03:28.250Z,84.60
2018-02-09T22:05:54.625Z,84.40
2018-02-09T22:08:21.778Z,84.60
2018-02-09T22:10:48.141Z,84.60
2018-02-09T22:13:14.503Z,84.70
2018-02-09T22:15:40.919Z,84.60
2018-02-09T22:18:07.315Z,84.60
2018-02-09T22:20:33.658Z,84.70
2018-02-09T22:23:00.036Z,85.10
2018-02-09T22:25:26.398Z,84.90
2018-02-09T22:27:53.495Z,85.00
2018-02-09T22:30:19.882Z,85.00
2018-02-09T22:32:46.236Z,85.10
2018-02-09T22:35:12.586Z,85.10
2018-02-09T22:37:39.000Z,85.20
2018-02-09T22:40:05.374Z,85.00
2018-02-09T22:42:31.777Z,84.20
2018-02-09T22:44:58.195Z,84.30
2018-02-09T22:47:24.565Z,84.20
2018-02-09T22:49:50.933Z,84.50
2018-02-09T22:52:17.351Z,85.50
2018-02-09T22:54:44.453Z,85.30
2018-02-09T22:57:10.830Z,85.30
2018-02-09T22:59:37.942Z,85.40
2018-02-09T23:02:04.310Z,85.40
2018-02-09T23:04:31.424Z,85.40
2018-02-09T23:06:57.786Z,85.40
2018-02-09T23:09:24.897Z,85.20
2018-02-09T23:11:51.250Z,85.20
2018-02-09T23:14:17.616Z,85.30
2018-02-09T23:16:43.982Z,85.90
2018-02-09T23:19:10.350Z,85.60
2018-02-09T23:21:36.708Z,85.60
2018-02-09T23:24:03.066Z,85.70
2018-02-09T23:26:29.427Z,86.00
2018-02-09T23:28:57.315Z,86.20
2018-02-09T23:31:24.414Z,86.00
2018-02-09T23:33:50.802Z,86.10
2018-02-09T23:36:17.891Z,86.20
2018-02-09T23:38:44.269Z,86.80
2018-02-09T23:41:11.414Z,85.80
2018-02-09T23:43:37.786Z,85.80
2018-02-09T23:46:04.158Z,85.70
2018-02-09T23:48:30.527Z,85.80
2018-02-09T23:50:57.630Z,85.90
2018-02-09T23:53:23.978Z,85.90
2018-02-09T23:55:50.330Z,85.80
2018-02-09T23:58:17.503Z,84.90
